createdAt,value
2018-02-12T17:43:52.359Z,38.40
2018-02-12T17:46:18.610Z,37.20
2018-02-12T17:48:44.824Z,38.40
2018-02-12T17:51:11.087Z,39.30
2018-02-12T17:53:37.344Z,40.00
2018-02-12T17:56:03.573Z,40.00
2018-02-12T17:58:47.696Z,40.20
2018-02-12T18:01:13.947Z,40.30
2018-02-12T18:03:40.924Z,40.70
2018-02-12T18:06:07.391Z,40.70
2018-02-12T18:08:33.631Z,40.80
2018-02-12T18:10:59.871Z,40.90
2018-02-12T18:13:26.111Z,41.00
2018-02-12T18:15:53.290Z,41.10
2018-02-12T18:18:19.531Z,41.10
2018-02-12T18:20:46.014Z,41.10
2018-02-12T18:23:12.295Z,41.20
2018-02-12T18:25:39.307Z,41.30
2018-02-12T18:28:05.537Z,41.30
2018-02-12T18:30:31.875Z,41.30
2018-02-12T18:32:58.239Z,41.30
2018-02-12T18:35:24.831Z,41.60
2018-02-12T18:37:51.105Z,41.40
2018-02-12T18:40:17.335Z,41.50
2018-02-12T18:42:44.197Z,41.60
2018-02-12T18:45:10.663Z,41.80
2018-02-12T18:47:36.907Z,41.80
2018-02-12T18:50:03.454Z,41.70
2018-02-12T18:52:30.459Z,41.70
2018-02-12T18:54:56.707Z,41.70
2018-02-12T18:57:22.971Z,41.60
2018-02-12T18:59:49.943Z,41.70
2018-02-12T19:02:16.331Z,41.60
2018-02-12T19:04:42.603Z,41.60
2018-02-12T19:07:09.759Z,43.30
2018-02-12T19:09:36.055Z,43.30
2018-02-12T19:12:02.430Z,41.50
2018-02-12T19:14:28.835Z,41.20
2018-02-12T19:16:55.242Z,41.20
2018-02-12T19:19:21.583Z,41.30
2018-02-12T19:21:47.960Z,41.30
2018-02-12T19:24:14.195Z,41.30
2018-02-12T19:26:40.537Z,41.30
2018-02-12T19:29:06.920Z,41.20
2018-02-12T19:31:33.159Z,41.20
2018-02-12T19:33:59.391Z,41.20
2018-02-12T19:36:26.486Z,41.20
2018-02-12T19:38:52.747Z,41.20
2018-02-12T19:41:19.248Z,41.40
2018-02-12T19:43:45.764Z,41.20
2018-02-12T19:46:11.991Z,41.20
2018-02-12T19:48:38.995Z,41.60
2018-02-12T19:51:05.409Z,41.50
2018-02-12T19:53:31.663Z,41.60
2018-02-12T19:55:58.039Z,41.60
2018-02-12T19:58:25.057Z,41.80
2018-02-12T20:00:51.291Z,41.70
2018-02-12T20:03:17.583Z,41.80
2018-02-12T20:05:43.816Z,41.70
2018-02-12T20:08:10.111Z,41.80
2018-02-12T20:10:37.143Z,41.90
2018-02-12T20:13:04.138Z,42.00
2018-02-12T20:15:30.418Z,41.80
2018-02-12T20:17:56.675Z,41.90
2018-02-12T20:20:22.903Z,42.10
2018-02-12T20:22:49.152Z,42.20
2018-02-12T20:25:15.489Z,42.20
2018-02-12T20:27:41.735Z,42.20
2018-02-12T20:30:08.051Z,42.30
2018-02-12T20:32:34.291Z,43.00
2018-02-12T20:35:00.659Z,42.30
2018-02-12T20:37:26.887Z,42.40
2018-02-12T20:39:53.176Z,42.50
2018-02-12T20:42:19.459Z,42.60
2018-02-12T20:44:46.455Z,42.50
2018-02-12T20:47:12.883Z,42.40
2018-02-12T20:49:39.123Z,42.40
2018-02-12T20:52:05.343Z,42.40
2018-02-12T20:54:31.576Z,42.40
2018-02-12T20:56:57.815Z,42.50
2018-02-12T20:59:24.023Z,42.80
2018-02-12T21:01:50.340Z,42.70
2018-02-12T21:04:16.592Z,42.80
2018-02-12T21:06:42.863Z,42.90
2018-02-12T21:09:09.087Z,42.90
2018-02-12T21:11:35.360Z,42.90
